createdAt,value
2022-12-10T00:01:02.418Z,99.0
2022-12-10T00:06:02.490Z,99.0
2022-12-10T00:11:02.420Z,98.9
2022-12-10T00:16:02.534Z,99.0
2022-12-10T00:21:02.428Z,98.9
2022-12-10T00:26:02.494Z,99.1
2022-12-10T00:31:02.472Z,99.1
2022-12-10T00:36:02.505Z,99.1
2022-12-10T00:41:02.440Z,98.9
2022-12-10T00:46:02.441Z,98.8
2022-12-10T00:51:02.444Z,98.8
2022-12-10T00:56:02.519Z,98.9
2022-12-10T01:01:02.480Z,98.9
2022-12-10T01:06:02.513Z,98.9
2022-12-10T01:11:02.461Z,98.9
2022-12-10T01:16:02.488Z,98.9
2022-12-10T01:21:02.465Z,98.9
2022-12-10T01:26:02.524Z,98.8
2022-12-10T01:31:02.465Z,98.8
2022-12-10T01:36:02.544Z,98.8
2022-12-10T01:41:02.491Z,98.8
2022-12-10T01:46:02.538Z,98.8
2022-12-10T01:51:02.477Z,98.7
2022-12-10T01:56:02.544Z,98.9
2022-12-10T02:01:02.530Z,98.9
2022-12-10T02:06:02.752Z,99.0
2022-12-10T02:11:02.488Z,99.0
2022-12-10T02:16:02.565Z,98.9
2022-12-10T02:21:02.489Z,98.7
2022-12-10T02:26:02.551Z,98.6
2022-12-10T02:31:02.500Z,98.6
2022-12-10T02:36:02.783Z,98.5
2022-12-10T02:41:02.515Z,98.6
2022-12-10T02:46:02.600Z,98.6
2022-12-10T02:51:02.511Z,98.7
2022-12-10T02:56:02.582Z,98.8
2022-12-10T03:01:02.521Z,98.8
2022-12-10T03:06:02.803Z,98.9
2022-12-10T03:11:02.522Z,98.9
2022-12-10T03:16:02.519Z,99.0
2022-12-10T03:21:02.525Z,99.1
2022-12-10T03:26:02.583Z,99.1
2022-12-10T03:31:02.562Z,99.1
2022-12-10T03:36:02.813Z,99.2
2022-12-10T03:41:02.530Z,99.2
2022-12-10T03:46:02.570Z,99.2
2022-12-10T03:51:02.547Z,99.3
2022-12-10T03:56:02.605Z,99.3
2022-12-10T04:01:02.590Z,99.3
2022-12-10T04:06:02.690Z,99.5
2022-12-10T04:11:02.548Z,99.4
2022-12-10T04:16:02.551Z,99.6
2022-12-10T04:21:02.563Z,99.5
2022-12-10T04:26:02.624Z,99.6
2022-12-10T04:31:02.684Z,99.6
2022-12-10T04:36:02.634Z,99.6
2022-12-10T04:41:02.564Z,99.8
2022-12-10T04:46:02.647Z,99.9
2022-12-10T04:51:02.569Z,100.0
2022-12-10T04:56:02.635Z,100.0
2022-12-10T05:01:02.624Z,100.0
2022-12-10T05:06:02.649Z,100.0
2022-12-10T05:11:02.587Z,100.0
2022-12-10T05:16:02.611Z,100.0
2022-12-10T05:21:02.586Z,100.0
2022-12-10T05:26:02.650Z,100.0
2022-12-10T05:31:02.634Z,100.0
2022-12-10T05:36:02.663Z,100.0
2022-12-10T05:41:02.593Z,100.0
2022-12-10T05:46:02.622Z,100.0
2022-12-10T05:51:02.606Z,100.0
2022-12-10T05:56:02.666Z,100.0
2022-12-10T06:01:02.606Z,100.0
2022-12-10T06:06:02.747Z,100.0
2022-12-10T06:11:02.621Z,100.0
2022-12-10T06:16:02.688Z,100.0
2022-12-10T06:21:02.615Z,100.0
2022-12-10T06:26:02.691Z,100.0
2022-12-10T06:31:02.810Z,100.0
2022-12-10T06:36:02.752Z,100.0
2022-12-10T06:41:02.636Z,100.0
2022-12-10T06:46:02.794Z,100.0
2022-12-10T06:51:02.632Z,100.0
2022-12-10T06:56:02.692Z,100.0
2022-12-10T07:01:02.645Z,100.0
2022-12-10T07:06:02.697Z,100.0
2022-12-10T07:11:02.659Z,100.0
2022-12-10T07:16:02.731Z,100.0
2022-12-10T07:21:02.643Z,100.0
2022-12-10T07:26:02.708Z,100.0
2022-12-10T07:31:02.710Z,100.0
2022-12-10T07:36:02.717Z,100.0
2022-12-10T07:41:02.654Z,100.0
2022-12-10T07:46:02.658Z,100.0
2022-12-10T07:51:02.663Z,100.0
2022-12-10T07:56:02.739Z,100.0
2022-12-10T08:01:02.711Z,100.0
2022-12-10T08:06:02.741Z,100.0
2022-12-10T08:11:02.677Z,100.0
2022-12-10T08:16:02.742Z,100.0
2022-12-10T08:21:02.682Z,100.0
2022-12-10T08:26:02.742Z,100.0
2022-12-10T08:31:02.679Z,100.0
2022-12-10T08:36:02.822Z,100.0
2022-12-10T08:41:02.688Z,100.0
2022-12-10T08:46:02.800Z,100.0
2022-12-10T08:51:02.695Z,100.0
2022-12-10T08:56:02.756Z,100.0
2022-12-10T09:01:02.786Z,100.0
2022-12-10T09:06:02.822Z,100.0
2022-12-10T09:11:02.727Z,100.0
2022-12-10T09:16:02.731Z,100.0
2022-12-10T09:21:02.718Z,100.0
2022-12-10T09:26:02.780Z,99.7
2022-12-10T09:31:02.713Z,99.8
2022-12-10T09:36:02.850Z,99.8
2022-12-10T09:41:02.717Z,99.7
2022-12-10T09:46:02.769Z,99.6
2022-12-10T09:51:02.729Z,99.7
2022-12-10T09:56:02.788Z,99.5
2022-12-10T10:01:02.800Z,99.6
2022-12-10T10:06:06.621Z,99.4
2022-12-10T10:11:02.740Z,99.4
2022-12-10T10:16:02.740Z,99.2
2022-12-10T10:21:02.745Z,99.3
2022-12-10T10:26:02.804Z,99.2
2022-12-10T10:31:02.776Z,99.0
2022-12-10T10:36:06.826Z,99.0
2022-12-10T10:41:02.757Z,98.7
2022-12-10T10:46:02.871Z,98.6
2022-12-10T10:51:02.757Z,98.6
2022-12-10T10:56:02.816Z,98.6
2022-12-10T11:01:02.790Z,98.4
2022-12-10T11:06:02.880Z,98.4
2022-12-10T11:11:02.784Z,98.4
2022-12-10T11:16:02.775Z,98.4
2022-12-10T11:21:02.787Z,98.5
2022-12-10T11:26:02.843Z,98.3
2022-12-10T11:31:02.836Z,98.4
2022-12-10T11:36:02.850Z,98.1
2022-12-10T11:41:02.787Z,98.2
2022-12-10T11:46:02.843Z,98.5
2022-12-10T11:51:02.795Z,98.3
2022-12-10T11:56:02.856Z,97.9
2022-12-10T12:01:06.545Z,97.8
2022-12-10T12:06:07.935Z,97.8
2022-12-10T12:11:02.804Z,98.0
2022-12-10T12:16:02.866Z,97.9
2022-12-10T12:21:02.805Z,97.5
2022-12-10T12:26:02.868Z,97.6
2022-12-10T12:31:02.913Z,97.6
2022-12-10T12:36:02.885Z,97.8
2022-12-10T12:41:02.814Z,97.8
2022-12-10T12:46:02.906Z,97.6
2022-12-10T12:51:02.818Z,97.9
2022-12-10T12:56:02.878Z,98.1
2022-12-10T13:01:02.828Z,98.2
2022-12-10T13:06:03.055Z,98.4
2022-12-10T13:11:02.837Z,98.5
2022-12-10T13:16:02.882Z,98.6
2022-12-10T13:21:02.841Z,98.4
2022-12-10T13:26:02.901Z,98.7
2022-12-10T13:31:02.871Z,98.7
2022-12-10T13:36:09.280Z,98.8
2022-12-10T13:41:02.848Z,98.6
2022-12-10T13:46:02.921Z,98.6
2022-12-10T13:51:02.854Z,98.3
2022-12-10T13:56:02.915Z,98.4
2022-12-10T14:01:02.862Z,98.7
2022-12-10T14:06:02.980Z,98.8
2022-12-10T14:11:02.858Z,98.8
2022-12-10T14:16:02.889Z,98.9
2022-12-10T14:21:02.871Z,99.1
2022-12-10T14:26:02.929Z,99.1
2022-12-10T14:31:02.971Z,99.2
2022-12-10T14:36:03.004Z,99.4
2022-12-10T14:41:02.882Z,99.3
2022-12-10T14:46:02.876Z,99.4
2022-12-10T14:51:02.878Z,99.3
2022-12-10T14:56:02.956Z,99.3
2022-12-10T15:01:02.888Z,99.7
2022-12-10T15:06:03.015Z,99.7
2022-12-10T15:11:02.925Z,99.7
2022-12-10T15:16:03.019Z,99.6
2022-12-10T15:21:02.900Z,99.6
2022-12-10T15:26:02.963Z,99.7
2022-12-10T15:31:02.909Z,99.8
2022-12-10T15:36:02.976Z,99.9
2022-12-10T15:41:02.915Z,100.0
2022-12-10T15:46:02.990Z,100.0
2022-12-10T15:51:02.924Z,100.0
2022-12-10T15:56:02.975Z,99.9
2022-12-10T16:01:03.031Z,99.8
2022-12-10T16:06:03.045Z,99.9
2022-12-10T16:11:02.925Z,99.8
2022-12-10T16:16:02.953Z,99.9
2022-12-10T16:21:02.932Z,100.0
2022-12-10T16:26:03.003Z,99.9
2022-12-10T16:31:02.933Z,99.9
2022-12-10T16:36:03.085Z,100.0
2022-12-10T16:41:02.941Z,100.0
2022-12-10T16:46:03.021Z,100.0
2022-12-10T16:51:08.115Z,100.0
2022-12-10T16:56:03.015Z,100.0
2022-12-10T17:01:03.044Z,100.0
2022-12-10T17:06:03.133Z,100.0
2022-12-10T17:11:02.957Z,100.0
2022-12-10T17:16:02.970Z,100.0
2022-12-10T17:21:02.965Z,100.0
2022-12-10T17:26:03.175Z,100.0
2022-12-10T17:31:02.969Z,100.0
2022-12-10T17:36:02.971Z,100.0
2022-12-10T17:41:03.090Z,100.0
2022-12-10T17:46:03.032Z,100.0
2022-12-10T17:51:02.984Z,100.0
2022-12-10T17:56:02.979Z,100.0
2022-12-10T18:01:03.129Z,100.0
2022-12-10T18:06:02.998Z,100.0
2022-12-10T18:11:03.200Z,100.0
2022-12-10T18:16:02.991Z,100.0
2022-12-10T18:21:02.993Z,100.0
2022-12-10T18:26:02.997Z,100.0
2022-12-10T18:31:03.225Z,100.0
2022-12-10T18:36:03.007Z,100.0
2022-12-10T18:41:03.000Z,100.0
2022-12-10T18:46:03.124Z,100.0
2022-12-10T18:51:03.020Z,100.0
2022-12-10T18:56:03.018Z,100.0
2022-12-10T19:01:03.068Z,100.0
2022-12-10T19:06:03.148Z,100.0
2022-12-10T19:11:03.025Z,100.0
2022-12-10T19:16:03.219Z,100.0
2022-12-10T19:21:03.030Z,100.0
2022-12-10T19:26:03.027Z,100.0
2022-12-10T19:31:03.101Z,100.0
2022-12-10T19:36:03.040Z,100.0
2022-12-10T19:41:03.094Z,100.0
2022-12-10T19:46:03.126Z,100.0
2022-12-10T19:51:03.175Z,100.0
2022-12-10T19:56:03.049Z,100.0
2022-12-10T20:01:03.241Z,100.0
2022-12-10T20:06:03.051Z,100.0
2022-12-10T20:11:03.266Z,100.0
2022-12-10T20:16:03.116Z,100.0
2022-12-10T20:21:03.065Z,100.0
2022-12-10T20:26:03.121Z,100.0
2022-12-10T20:31:03.129Z,100.0
2022-12-10T20:36:03.069Z,100.0
2022-12-10T20:41:03.099Z,100.0
2022-12-10T20:46:03.230Z,100.0
2022-12-10T20:51:03.071Z,100.0
2022-12-10T20:56:03.072Z,100.0
2022-12-10T21:01:03.198Z,100.0
2022-12-10T21:06:03.083Z,100.0
2022-12-10T21:11:03.088Z,100.0
2022-12-10T21:16:03.126Z,100.0
2022-12-10T21:21:03.151Z,100.0
2022-12-10T21:26:03.087Z,100.0
2022-12-10T21:31:03.176Z,100.0
2022-12-10T21:36:03.359Z,100.0
2022-12-10T21:41:03.098Z,100.0
2022-12-10T21:46:03.144Z,100.0
2022-12-10T21:51:03.163Z,100.0
2022-12-10T21:56:03.105Z,100.0
2022-12-10T22:01:03.114Z,100.0
2022-12-10T22:06:03.393Z,100.0
2022-12-10T22:11:03.116Z,100.0
2022-12-10T22:16:03.169Z,100.0
2022-12-10T22:21:03.177Z,100.0
2022-12-10T22:26:03.121Z,100.0
2022-12-10T22:31:03.203Z,100.0
2022-12-10T22:36:03.413Z,100.0
2022-12-10T22:41:03.130Z,100.0
2022-12-10T22:46:03.144Z,100.0
2022-12-10T22:51:03.205Z,100.0
2022-12-10T22:56:03.138Z,100.0
2022-12-10T23:01:03.276Z,100.0
2022-12-10T23:06:03.406Z,100.0
2022-12-10T23:11:03.161Z,100.0
2022-12-10T23:16:03.187Z,100.0
2022-12-10T23:21:03.219Z,100.0
2022-12-10T23:26:03.154Z,100.0
2022-12-10T23:31:03.160Z,100.0
2022-12-10T23:36:03.425Z,100.0
2022-12-10T23:41:03.168Z,100.0
2022-12-10T23:46:03.276Z,100.0
2022-12-10T23:51:03.230Z,100.0
2022-12-10T23:56:03.173Z,100.0
